PWSweather.com
Personal Weather Stations
Station Observations
KJ4AJP
Beautiful Downtown Gardner, Martin, TN 38237

Beautiful Downtown GardnerMartin, TN 38237

Lat: 36.358, Lon: -88.8994

Elevation: 384.3

Station Type: TP1080WC

http://weather.mambm.com/

High Low Average
Temperature 42.4°F5.8°C 25.2°F-3.8°C 32.5°F0.3°C
Dew Point 34.4°F1.3°C 24.2°F-4.3°C 29.0°F-1.7°C
Winds 9.8 mph 15.8 kmh 0.7 mph 1.1 kmh 4.0 mph ENE6.4 kmh ENE
Wind Gusts 17.4 mph28.0 kmh 3.8 mph6.1 kmh 11.0 mph17.7 kmh
Humidity 99% 69% 88%
Pressure 30.55 in1034.5 mb 30.36 in1028.1 mb -
Precipitation 0.00 in0.0 mm - -
Hour Temp Dew Point Humidity Winds Wind Gusts Pressure Precip Precip Rate Daily Precip Total
12:00 AM 28.0°F-2.2°C 27.8°F-2.3°C 99% 3.1 mph N5.0 kmh N 9.8 mph15.8 kmh 30.36 in1028.1 mb 0.00 in0.0 mm 0.00 in0.0 mm 0.00 in0.0 mm
12:15 AM 27.9°F-2.3°C 27.4°F-2.6°C 98% 7.6 mph NE12.2 kmh NE 15.2 mph24.5 kmh 30.38 in1028.8 mb 0.00 in0.0 mm 0.00 in0.0 mm 0.00 in0.0 mm
12:30 AM 27.9°F-2.3°C 27.4°F-2.6°C 98% 4.5 mph N7.2 kmh N 11.4 mph18.3 kmh 30.38 in1028.8 mb 0.00 in0.0 mm 0.00 in0.0 mm 0.00 in0.0 mm
12:45 AM 27.9°F-2.3°C 27.4°F-2.6°C 98% 4.5 mph N7.2 kmh N 13.0 mph20.9 kmh 30.38 in1028.8 mb 0.00 in0.0 mm 0.00 in0.0 mm 0.00 in0.0 mm
01:00 AM 27.7°F-2.4°C 27.0°F-2.8°C 97% 6.0 mph N9.7 kmh N 12.1 mph19.5 kmh 30.37 in1028.4 mb 0.00 in0.0 mm 0.00 in0.0 mm 0.00 in0.0 mm
01:15 AM 27.7°F-2.4°C 27.0°F-2.8°C 97% 4.5 mph N7.2 kmh N 11.4 mph18.3 kmh 30.38 in1028.8 mb 0.00 in0.0 mm 0.00 in0.0 mm 0.00 in0.0 mm
01:30 AM 27.7°F-2.4°C 27.0°F-2.8°C 97% 6.9 mph NNE11.1 kmh NNE 15.9 mph25.6 kmh 30.37 in1028.4 mb 0.00 in0.0 mm 0.00 in0.0 mm 0.00 in0.0 mm
01:45 AM 27.7°F-2.4°C 26.7°F-2.9°C 96% 9.8 mph NNE15.8 kmh NNE 13.6 mph21.9 kmh 30.38 in1028.8 mb 0.00 in0.0 mm 0.00 in0.0 mm 0.00 in0.0 mm
02:00 AM 27.7°F-2.4°C 26.7°F-2.9°C 96% 3.8 mph N6.1 kmh N 15.2 mph24.5 kmh 30.38 in1028.8 mb 0.00 in0.0 mm 0.00 in0.0 mm 0.00 in0.0 mm
02:15 AM 27.7°F-2.4°C 26.7°F-2.9°C 96% 4.5 mph N7.2 kmh N 13.0 mph20.9 kmh 30.40 in1029.5 mb 0.00 in0.0 mm 0.00 in0.0 mm 0.00 in0.0 mm
02:30 AM 27.7°F-2.4°C 26.7°F-2.9°C 96% 7.6 mph N12.2 kmh N 13.6 mph21.9 kmh 30.40 in1029.5 mb 0.00 in0.0 mm 0.00 in0.0 mm 0.00 in0.0 mm
02:45 AM 27.7°F-2.4°C 26.7°F-2.9°C 96% 5.4 mph N8.7 kmh N 13.0 mph20.9 kmh 30.40 in1029.5 mb 0.00 in0.0 mm 0.00 in0.0 mm 0.00 in0.0 mm
03:00 AM 27.7°F-2.4°C 26.7°F-2.9°C 96% 8.3 mph N13.4 kmh N 15.2 mph24.5 kmh 30.41 in1029.8 mb 0.00 in0.0 mm 0.00 in0.0 mm 0.00 in0.0 mm
03:15 AM 27.7°F-2.4°C 26.7°F-2.9°C 96% 4.5 mph N7.2 kmh N 15.9 mph25.6 kmh 30.40 in1029.5 mb 0.00 in0.0 mm 0.00 in0.0 mm 0.00 in0.0 mm
03:30 AM 27.5°F-2.5°C 26.5°F-3.1°C 96% 4.5 mph N7.2 kmh N 17.4 mph28.0 kmh 30.41 in1029.8 mb 0.00 in0.0 mm 0.00 in0.0 mm 0.00 in0.0 mm
03:45 AM 27.5°F-2.5°C 26.5°F-3.1°C 96% 3.8 mph N6.1 kmh N 14.5 mph23.3 kmh 30.42 in1030.1 mb 0.00 in0.0 mm 0.00 in0.0 mm 0.00 in0.0 mm
04:00 AM 27.3°F-2.6°C 26.1°F-3.3°C 95% 2.2 mph NE3.5 kmh NE 11.4 mph18.3 kmh 30.43 in1030.5 mb 0.00 in0.0 mm 0.00 in0.0 mm 0.00 in0.0 mm
04:15 AM 26.4°F-3.1°C 24.9°F-3.9°C 94% 6.9 mph N11.1 kmh N 14.5 mph23.3 kmh 30.43 in1030.5 mb 0.00 in0.0 mm 0.00 in0.0 mm 0.00 in0.0 mm
04:30 AM 26.1°F-3.3°C 24.6°F-4.1°C 94% 3.8 mph NNE6.1 kmh NNE 9.8 mph15.8 kmh 30.44 in1030.8 mb 0.00 in0.0 mm 0.00 in0.0 mm 0.00 in0.0 mm
04:45 AM 25.9°F-3.4°C 24.7°F-4.1°C 95% 5.4 mph N8.7 kmh N 12.1 mph19.5 kmh 30.44 in1030.8 mb 0.00 in0.0 mm 0.00 in0.0 mm 0.00 in0.0 mm
05:00 AM 25.7°F-3.5°C 24.5°F-4.2°C 95% 4.5 mph N7.2 kmh N 9.2 mph14.8 kmh 30.45 in1031.2 mb 0.00 in0.0 mm 0.00 in0.0 mm 0.00 in0.0 mm
05:15 AM 25.7°F-3.5°C 24.5°F-4.2°C 95% 5.4 mph N8.7 kmh N 9.8 mph15.8 kmh 30.46 in1031.5 mb 0.00 in0.0 mm 0.00 in0.0 mm 0.00 in0.0 mm
05:30 AM 25.5°F-3.6°C 24.6°F-4.1°C 96% 6.9 mph N11.1 kmh N 9.8 mph15.8 kmh 30.46 in1031.5 mb 0.00 in0.0 mm 0.00 in0.0 mm 0.00 in0.0 mm
05:45 AM 25.5°F-3.6°C 24.6°F-4.1°C 96% 5.4 mph N8.7 kmh N 15.2 mph24.5 kmh 30.47 in1031.8 mb 0.00 in0.0 mm 0.00 in0.0 mm 0.00 in0.0 mm
06:00 AM 25.5°F-3.6°C 24.6°F-4.1°C 96% 4.5 mph N7.2 kmh N 12.1 mph19.5 kmh 30.47 in1031.8 mb 0.00 in0.0 mm 0.00 in0.0 mm 0.00 in0.0 mm
06:15 AM 25.3°F-3.7°C 24.4°F-4.2°C 96% 4.5 mph NNE7.2 kmh NNE 9.8 mph15.8 kmh 30.47 in1031.8 mb 0.00 in0.0 mm 0.00 in0.0 mm 0.00 in0.0 mm
06:30 AM 25.2°F-3.8°C 24.2°F-4.3°C 96% 4.5 mph N7.2 kmh N 9.2 mph14.8 kmh 30.48 in1032.2 mb 0.00 in0.0 mm 0.00 in0.0 mm 0.00 in0.0 mm
06:45 AM 25.3°F-3.7°C 24.6°F-4.1°C 97% 5.4 mph N8.7 kmh N 10.7 mph17.2 kmh 30.48 in1032.2 mb 0.00 in0.0 mm 0.00 in0.0 mm 0.00 in0.0 mm
07:00 AM 25.5°F-3.6°C 24.8°F-4.0°C 97% 3.8 mph N6.1 kmh N 13.0 mph20.9 kmh 30.49 in1032.5 mb 0.00 in0.0 mm 0.00 in0.0 mm 0.00 in0.0 mm
07:15 AM 25.7°F-3.5°C 25.0°F-3.9°C 97% 2.2 mph N3.5 kmh N 9.8 mph15.8 kmh 30.50 in1032.8 mb 0.00 in0.0 mm 0.00 in0.0 mm 0.00 in0.0 mm
07:30 AM 25.7°F-3.5°C 24.7°F-4.1°C 96% 1.6 mph NNE2.6 kmh NNE 9.2 mph14.8 kmh 30.50 in1032.8 mb 0.00 in0.0 mm 0.00 in0.0 mm 0.00 in0.0 mm
07:45 AM 26.1°F-3.3°C 25.3°F-3.7°C 97% 5.4 mph N8.7 kmh N 8.3 mph13.4 kmh 30.50 in1032.8 mb 0.00 in0.0 mm 0.00 in0.0 mm 0.00 in0.0 mm
08:00 AM 26.2°F-3.2°C 25.3°F-3.7°C 96% 3.1 mph NNE5.0 kmh NNE 13.0 mph20.9 kmh 30.51 in1033.2 mb 0.00 in0.0 mm 0.00 in0.0 mm 0.00 in0.0 mm
08:15 AM 26.8°F-2.9°C 25.8°F-3.4°C 96% 3.1 mph N5.0 kmh N 10.7 mph17.2 kmh 30.52 in1033.5 mb 0.00 in0.0 mm 0.00 in0.0 mm 0.00 in0.0 mm
08:30 AM 27.5°F-2.5°C 26.5°F-3.1°C 96% 4.5 mph N7.2 kmh N 10.7 mph17.2 kmh 30.51 in1033.2 mb 0.00 in0.0 mm 0.00 in0.0 mm 0.00 in0.0 mm
08:45 AM 27.9°F-2.3°C 26.6°F-3.0°C 95% 3.1 mph N5.0 kmh N 12.1 mph19.5 kmh 30.51 in1033.2 mb 0.00 in0.0 mm 0.00 in0.0 mm 0.00 in0.0 mm
09:00 AM 28.4°F-2.0°C 26.9°F-2.8°C 94% 4.5 mph N7.2 kmh N 14.5 mph23.3 kmh 30.52 in1033.5 mb 0.00 in0.0 mm 0.00 in0.0 mm 0.00 in0.0 mm
09:15 AM 29.8°F-1.2°C 28.1°F-2.2°C 93% 3.1 mph NE5.0 kmh NE 10.7 mph17.2 kmh 30.52 in1033.5 mb 0.00 in0.0 mm 0.00 in0.0 mm 0.00 in0.0 mm
09:30 AM 29.8°F-1.2°C 27.8°F-2.3°C 92% 6.0 mph N9.7 kmh N 12.1 mph19.5 kmh 30.53 in1033.9 mb 0.00 in0.0 mm 0.00 in0.0 mm 0.00 in0.0 mm
09:45 AM 30.7°F-0.7°C 28.7°F-1.8°C 92% 4.5 mph N7.2 kmh N 12.1 mph19.5 kmh 30.53 in1033.9 mb 0.00 in0.0 mm 0.00 in0.0 mm 0.00 in0.0 mm
10:00 AM 31.8°F-0.1°C 29.5°F-1.4°C 91% 6.0 mph NNE9.7 kmh NNE 12.1 mph19.5 kmh 30.53 in1033.9 mb 0.00 in0.0 mm 0.00 in0.0 mm 0.00 in0.0 mm
10:15 AM 32.0°F0.0°C 29.1°F-1.6°C 89% 3.1 mph N5.0 kmh N 10.7 mph17.2 kmh 30.53 in1033.9 mb 0.00 in0.0 mm 0.00 in0.0 mm 0.00 in0.0 mm
10:30 AM 32.2°F0.1°C 29.0°F-1.7°C 88% 4.5 mph NNE7.2 kmh NNE 8.3 mph13.4 kmh 30.53 in1033.9 mb 0.00 in0.0 mm 0.00 in0.0 mm 0.00 in0.0 mm
10:45 AM 32.5°F0.3°C 29.4°F-1.4°C 88% 6.0 mph N9.7 kmh N 11.4 mph18.3 kmh 30.54 in1034.2 mb 0.00 in0.0 mm 0.00 in0.0 mm 0.00 in0.0 mm
11:00 AM 33.3°F0.7°C 30.1°F-1.1°C 88% 5.4 mph NE8.7 kmh NE 13.6 mph21.9 kmh 30.54 in1034.2 mb 0.00 in0.0 mm 0.00 in0.0 mm 0.00 in0.0 mm
11:15 AM 33.8°F1.0°C 30.4°F-0.9°C 87% 3.1 mph NNW5.0 kmh NNW 10.7 mph17.2 kmh 30.53 in1033.9 mb 0.00 in0.0 mm 0.00 in0.0 mm 0.00 in0.0 mm
11:30 AM 34.0°F1.1°C 30.2°F-1.0°C 86% 5.4 mph N8.7 kmh N 13.0 mph20.9 kmh 30.53 in1033.9 mb 0.00 in0.0 mm 0.00 in0.0 mm 0.00 in0.0 mm
11:45 AM 34.9°F1.6°C 31.1°F-0.5°C 86% 3.1 mph N5.0 kmh N 12.1 mph19.5 kmh 30.52 in1033.5 mb 0.00 in0.0 mm 0.00 in0.0 mm 0.00 in0.0 mm
12:00 PM 35.4°F1.9°C 31.4°F-0.3°C 85% 5.4 mph N8.7 kmh N 12.1 mph19.5 kmh 30.52 in1033.5 mb 0.00 in0.0 mm 0.00 in0.0 mm 0.00 in0.0 mm
12:15 PM 36.5°F2.5°C 32.4°F0.2°C 85% 4.5 mph NNE7.2 kmh NNE 11.4 mph18.3 kmh 30.52 in1033.5 mb 0.00 in0.0 mm 0.00 in0.0 mm 0.00 in0.0 mm
12:30 PM 37.8°F3.2°C 33.4°F0.8°C 84% 4.5 mph N7.2 kmh N 11.4 mph18.3 kmh 30.52 in1033.5 mb 0.00 in0.0 mm 0.00 in0.0 mm 0.00 in0.0 mm
12:45 PM 38.5°F3.6°C 33.5°F0.8°C 82% 3.8 mph NNE6.1 kmh NNE 9.8 mph15.8 kmh 30.50 in1032.8 mb 0.00 in0.0 mm 0.00 in0.0 mm 0.00 in0.0 mm
01:00 PM 38.8°F3.8°C 33.5°F0.8°C 81% 6.9 mph N11.1 kmh N 15.2 mph24.5 kmh 30.50 in1032.8 mb 0.00 in0.0 mm 0.00 in0.0 mm 0.00 in0.0 mm
01:15 PM 39.4°F4.1°C 33.7°F0.9°C 80% 4.5 mph N7.2 kmh N 12.1 mph19.5 kmh 30.50 in1032.8 mb 0.00 in0.0 mm 0.00 in0.0 mm 0.00 in0.0 mm
01:30 PM 39.2°F4.0°C 33.2°F0.7°C 79% 3.8 mph NE6.1 kmh NE 14.5 mph23.3 kmh 30.49 in1032.5 mb 0.00 in0.0 mm 0.00 in0.0 mm 0.00 in0.0 mm
01:45 PM 40.5°F4.7°C 34.2°F1.2°C 78% 6.9 mph NNE11.1 kmh NNE 13.0 mph20.9 kmh 30.50 in1032.8 mb 0.00 in0.0 mm 0.00 in0.0 mm 0.00 in0.0 mm
02:00 PM 40.8°F4.9°C 34.2°F1.2°C 77% 8.3 mph N13.4 kmh N 14.5 mph23.3 kmh 30.48 in1032.2 mb 0.00 in0.0 mm 0.00 in0.0 mm 0.00 in0.0 mm
02:15 PM 41.2°F5.1°C 34.2°F1.2°C 76% 7.6 mph N12.2 kmh N 15.9 mph25.6 kmh 30.47 in1031.8 mb 0.00 in0.0 mm 0.00 in0.0 mm 0.00 in0.0 mm
02:30 PM 41.7°F5.4°C 34.4°F1.3°C 75% 3.1 mph NNE5.0 kmh NNE 12.1 mph19.5 kmh 30.47 in1031.8 mb 0.00 in0.0 mm 0.00 in0.0 mm 0.00 in0.0 mm
02:45 PM 42.1°F5.6°C 34.4°F1.3°C 74% 2.2 mph NNE3.5 kmh NNE 12.1 mph19.5 kmh 30.48 in1032.2 mb 0.00 in0.0 mm 0.00 in0.0 mm 0.00 in0.0 mm
03:00 PM 42.3°F5.7°C 34.2°F1.2°C 73% 3.1 mph NE5.0 kmh NE 17.4 mph28.0 kmh 30.48 in1032.2 mb 0.00 in0.0 mm 0.00 in0.0 mm 0.00 in0.0 mm
03:15 PM 42.4°F5.8°C 33.7°F0.9°C 71% 4.5 mph N7.2 kmh N 13.6 mph21.9 kmh 30.47 in1031.8 mb 0.00 in0.0 mm 0.00 in0.0 mm 0.00 in0.0 mm
03:30 PM 42.4°F5.8°C 33.7°F0.9°C 71% 4.5 mph N7.2 kmh N 12.1 mph19.5 kmh 30.48 in1032.2 mb 0.00 in0.0 mm 0.00 in0.0 mm 0.00 in0.0 mm
03:45 PM 42.3°F5.7°C 33.5°F0.8°C 71% 7.6 mph NNE12.2 kmh NNE 16.8 mph27.0 kmh 30.48 in1032.2 mb 0.00 in0.0 mm 0.00 in0.0 mm 0.00 in0.0 mm
04:00 PM 42.1°F5.6°C 33.4°F0.8°C 71% 1.6 mph N2.6 kmh N 13.0 mph20.9 kmh 30.48 in1032.2 mb 0.00 in0.0 mm 0.00 in0.0 mm 0.00 in0.0 mm
04:15 PM 42.4°F5.8°C 33.7°F0.9°C 71% 4.5 mph NNE7.2 kmh NNE 11.4 mph18.3 kmh 30.48 in1032.2 mb 0.00 in0.0 mm 0.00 in0.0 mm 0.00 in0.0 mm
04:30 PM 42.3°F5.7°C 32.8°F0.4°C 69% 3.8 mph N6.1 kmh N 15.2 mph24.5 kmh 30.48 in1032.2 mb 0.00 in0.0 mm 0.00 in0.0 mm 0.00 in0.0 mm
04:45 PM 42.1°F5.6°C 32.7°F0.4°C 69% 3.1 mph NE5.0 kmh NE 13.6 mph21.9 kmh 30.47 in1031.8 mb 0.00 in0.0 mm 0.00 in0.0 mm 0.00 in0.0 mm
05:00 PM 41.5°F5.3°C 32.5°F0.3°C 70% 4.5 mph NNE7.2 kmh NNE 9.8 mph15.8 kmh 30.48 in1032.2 mb 0.00 in0.0 mm 0.00 in0.0 mm 0.00 in0.0 mm
05:15 PM 40.8°F4.9°C 32.2°F0.1°C 71% 1.6 mph NE2.6 kmh NE 9.2 mph14.8 kmh 30.49 in1032.5 mb 0.00 in0.0 mm 0.00 in0.0 mm 0.00 in0.0 mm
05:30 PM 39.9°F4.4°C 32.0°F0.0°C 73% 2.2 mph NNE3.5 kmh NNE 9.8 mph15.8 kmh 30.49 in1032.5 mb 0.00 in0.0 mm 0.00 in0.0 mm 0.00 in0.0 mm
05:45 PM 39.0°F3.9°C 31.4°F-0.3°C 74% 2.2 mph NNE3.5 kmh NNE 6.9 mph11.1 kmh 30.51 in1033.2 mb 0.00 in0.0 mm 0.00 in0.0 mm 0.00 in0.0 mm
06:00 PM 38.3°F3.5°C 31.1°F-0.5°C 75% 0.7 mph N1.1 kmh N 8.3 mph13.4 kmh 30.52 in1033.5 mb 0.00 in0.0 mm 0.00 in0.0 mm 0.00 in0.0 mm
06:15 PM 37.6°F3.1°C 30.7°F-0.7°C 76% 1.6 mph NE2.6 kmh NE 6.0 mph9.7 kmh 30.52 in1033.5 mb 0.00 in0.0 mm 0.00 in0.0 mm 0.00 in0.0 mm
06:30 PM 36.9°F2.7°C 30.3°F-0.9°C 77% 0.7 mph NNE1.1 kmh NNE 5.4 mph8.7 kmh 30.52 in1033.5 mb 0.00 in0.0 mm 0.00 in0.0 mm 0.00 in0.0 mm
06:45 PM 36.3°F2.4°C 30.1°F-1.1°C 78% 2.2 mph N3.5 kmh N 6.0 mph9.7 kmh 30.52 in1033.5 mb 0.00 in0.0 mm 0.00 in0.0 mm 0.00 in0.0 mm
07:00 PM 35.6°F2.0°C 29.7°F-1.3°C 79% 2.2 mph N3.5 kmh N 6.0 mph9.7 kmh 30.53 in1033.9 mb 0.00 in0.0 mm 0.00 in0.0 mm 0.00 in0.0 mm
07:15 PM 35.2°F1.8°C 29.7°F-1.3°C 80% 2.2 mph N3.5 kmh N 5.4 mph8.7 kmh 30.53 in1033.9 mb 0.00 in0.0 mm 0.00 in0.0 mm 0.00 in0.0 mm
07:30 PM 34.3°F1.3°C 29.4°F-1.4°C 82% 3.1 mph N5.0 kmh N 6.0 mph9.7 kmh 30.53 in1033.9 mb 0.00 in0.0 mm 0.00 in0.0 mm 0.00 in0.0 mm
07:45 PM 34.0°F1.1°C 29.7°F-1.3°C 84% 4.5 mph N7.2 kmh N 9.2 mph14.8 kmh 30.53 in1033.9 mb 0.00 in0.0 mm 0.00 in0.0 mm 0.00 in0.0 mm
08:00 PM 33.6°F0.9°C 29.6°F-1.3°C 85% 3.1 mph N5.0 kmh N 7.6 mph12.2 kmh 30.54 in1034.2 mb 0.00 in0.0 mm 0.00 in0.0 mm 0.00 in0.0 mm
08:15 PM 33.3°F0.7°C 29.5°F-1.4°C 86% 3.1 mph NNE5.0 kmh NNE 8.3 mph13.4 kmh 30.55 in1034.5 mb 0.00 in0.0 mm 0.00 in0.0 mm 0.00 in0.0 mm
08:30 PM 33.1°F0.6°C 29.6°F-1.3°C 87% 2.2 mph N3.5 kmh N 9.2 mph14.8 kmh 30.55 in1034.5 mb 0.00 in0.0 mm 0.00 in0.0 mm 0.00 in0.0 mm
08:45 PM 32.9°F0.5°C 29.8°F-1.2°C 88% 1.6 mph N2.6 kmh N 9.2 mph14.8 kmh 30.54 in1034.2 mb 0.00 in0.0 mm 0.00 in0.0 mm 0.00 in0.0 mm
09:00 PM 32.5°F0.3°C 29.4°F-1.4°C 88% 2.2 mph N3.5 kmh N 7.6 mph12.2 kmh 30.54 in1034.2 mb 0.00 in0.0 mm 0.00 in0.0 mm 0.00 in0.0 mm
09:15 PM 32.4°F0.2°C 29.2°F-1.6°C 88% 3.1 mph N5.0 kmh N 7.6 mph12.2 kmh 30.55 in1034.5 mb 0.00 in0.0 mm 0.00 in0.0 mm 0.00 in0.0 mm
09:30 PM 32.0°F0.0°C 29.1°F-1.6°C 89% 1.6 mph N2.6 kmh N 6.0 mph9.7 kmh 30.54 in1034.2 mb 0.00 in0.0 mm 0.00 in0.0 mm 0.00 in0.0 mm
09:45 PM 32.0°F0.0°C 29.1°F-1.6°C 89% 3.1 mph NNE5.0 kmh NNE 9.8 mph15.8 kmh 30.54 in1034.2 mb 0.00 in0.0 mm 0.00 in0.0 mm 0.00 in0.0 mm
10:00 PM 31.8°F-0.1°C 29.0°F-1.7°C 89% 0.7 mph N1.1 kmh N 8.3 mph13.4 kmh 30.55 in1034.5 mb 0.00 in0.0 mm 0.00 in0.0 mm 0.00 in0.0 mm
10:15 PM 31.5°F-0.3°C 28.9°F-1.7°C 90% 1.6 mph N2.6 kmh N 5.4 mph8.7 kmh 30.54 in1034.2 mb 0.00 in0.0 mm 0.00 in0.0 mm 0.00 in0.0 mm
10:30 PM 31.3°F-0.4°C 28.7°F-1.8°C 90% 0.7 mph N1.1 kmh N 4.5 mph7.2 kmh 30.53 in1033.9 mb 0.00 in0.0 mm 0.00 in0.0 mm 0.00 in0.0 mm
10:45 PM 30.9°F-0.6°C 28.3°F-2.1°C 90% 0.7 mph N1.1 kmh N 3.8 mph6.1 kmh 30.52 in1033.5 mb 0.00 in0.0 mm 0.00 in0.0 mm 0.00 in0.0 mm
11:00 PM 30.7°F-0.7°C 28.4°F-2.0°C 91% 2.2 mph N3.5 kmh N 4.5 mph7.2 kmh 30.51 in1033.2 mb 0.00 in0.0 mm 0.00 in0.0 mm 0.00 in0.0 mm
11:15 PM 30.6°F-0.8°C 28.3°F-2.1°C 91% 0.7 mph NNW1.1 kmh NNW 4.5 mph7.2 kmh 30.51 in1033.2 mb 0.00 in0.0 mm 0.00 in0.0 mm 0.00 in0.0 mm
11:30 PM 30.2°F-1.0°C 27.9°F-2.3°C 91% 1.6 mph N2.6 kmh N 3.8 mph6.1 kmh 30.51 in1033.2 mb 0.00 in0.0 mm 0.00 in0.0 mm 0.00 in0.0 mm
11:45 PM 29.7°F-1.3°C 27.6°F-2.4°C 92% 1.6 mph N2.6 kmh N 3.8 mph6.1 kmh 30.51 in1033.2 mb 0.00 in0.0 mm 0.00 in0.0 mm 0.00 in0.0 mm